ACA728 KBOS-CYHZ
Flight info
| Callsign | ACA728 |
|---|---|
| Flight time | 1h 1m |
| Altitude | 37000 |
| Route | LBSTA8 LBSTA DCT ALLEX FUNDY5 |
| Aircraft | B38M/M-SDE1FGHILORVWXY/HB1 |
Departure
| Time | 2026-04-27 23:14 |
|---|---|
| Airport | Boston Logan International Airport (KBOS) |
Arrival
| Time | 2026-04-28 00:16 |
|---|---|
| Airport | Halifax / Stanfield International Airport (CYHZ) |
| Time | Latitude | Longitude | Altitude | Speed | Heading |
|---|---|---|---|---|---|
| 2026-04-27 22:37 | 42.36232 | -71.02034 | 27 ft | 0 kts | 161° |
| 2026-04-27 23:01 | 42.36241 | -71.02038 | 27 ft | 4 kts | 162° |
| 2026-04-27 23:02 | 42.36266 | -71.02047 | 26 ft | 4 kts | 169° |
| 2026-04-27 23:02 | 42.36292 | -71.02052 | 27 ft | 4 kts | 175° |
| 2026-04-27 23:02 | 42.36306 | -71.02053 | 27 ft | 1 kts | 176° |
| 2026-04-27 23:05 | 42.36302 | -71.02055 | 27 ft | 2 kts | 197° |
| 2026-04-27 23:05 | 42.36285 | -71.02114 | 27 ft | 12 kts | 256° |
| 2026-04-27 23:06 | 42.36318 | -71.02257 | 26 ft | 16 kts | 290° |
| 2026-04-27 23:06 | 42.36249 | -71.02343 | 26 ft | 17 kts | 182° |
| 2026-04-27 23:06 | 42.36225 | -71.02345 | 29 ft | 0 kts | 184° |
| 2026-04-27 23:07 | 42.36224 | -71.02345 | 28 ft | 1 kts | 184° |
| 2026-04-27 23:07 | 42.36182 | -71.02347 | 27 ft | 12 kts | 178° |
| 2026-04-27 23:08 | 42.36065 | -71.02305 | 27 ft | 23 kts | 146° |
| 2026-04-27 23:08 | 42.35962 | -71.02096 | 28 ft | 31 kts | 120° |
| 2026-04-27 23:08 | 42.35855 | -71.01837 | 31 ft | 22 kts | 109° |
| 2026-04-27 23:08 | 42.35838 | -71.01735 | 32 ft | 3 kts | 101° |
| 2026-04-27 23:09 | 42.35833 | -71.01701 | 32 ft | 4 kts | 101° |
| 2026-04-27 23:09 | 42.35824 | -71.01639 | 32 ft | 11 kts | 102° |
| 2026-04-27 23:09 | 42.35807 | -71.01551 | 33 ft | 4 kts | 111° |
| 2026-04-27 23:09 | 42.35781 | -71.01454 | 33 ft | 18 kts | 109° |
| 2026-04-27 23:10 | 42.35736 | -71.01306 | 29 ft | 0 kts | 131° |
| 2026-04-27 23:11 | 42.35724 | -71.01295 | 28 ft | 5 kts | 154° |
| 2026-04-27 23:11 | 42.35697 | -71.01292 | 28 ft | 0 kts | 188° |
| 2026-04-27 23:12 | 42.35679 | -71.01298 | 29 ft | 7 kts | 197° |
| 2026-04-27 23:12 | 42.35601 | -71.01285 | 30 ft | 16 kts | 134° |
| 2026-04-27 23:13 | 42.35588 | -71.01241 | 30 ft | 0 kts | 90° |
| 2026-04-27 23:13 | 42.35588 | -71.01237 | 30 ft | 0 kts | 89° |
| 2026-04-27 23:14 | 42.35605 | -71.01125 | 28 ft | 34 kts | 77° |
| 2026-04-27 23:14 | 42.35723 | -71.00458 | 28 ft | 114 kts | 76° |
| 2026-04-27 23:14 | 42.35965 | -70.99101 | 105 ft | 176 kts | 76° |
| 2026-04-27 23:14 | 42.36287 | -70.97357 | 710 ft | 203 kts | 77° |
| 2026-04-27 23:15 | 42.36638 | -70.95495 | 1884 ft | 203 kts | 76° |
| 2026-04-27 23:15 | 42.36958 | -70.93555 | 2584 ft | 224 kts | 77° |
| 2026-04-27 23:15 | 42.37304 | -70.91429 | 3353 ft | 234 kts | 76° |
| 2026-04-27 23:15 | 42.37664 | -70.89277 | 3780 ft | 235 kts | 76° |
| 2026-04-27 23:16 | 42.38031 | -70.87126 | 3863 ft | 235 kts | 75° |
| 2026-04-27 23:16 | 42.38406 | -70.84956 | 3933 ft | 243 kts | 75° |
| 2026-04-27 23:16 | 42.38827 | -70.82711 | 3964 ft | 248 kts | 67° |
| 2026-04-27 23:16 | 42.39814 | -70.80816 | 4167 ft | 252 kts | 40° |
| 2026-04-27 23:17 | 42.41210 | -70.79361 | 5008 ft | 252 kts | 37° |
| 2026-04-27 23:17 | 42.42612 | -70.77936 | 6163 ft | 253 kts | 36° |
| 2026-04-27 23:17 | 42.44031 | -70.76525 | 7240 ft | 253 kts | 36° |
| 2026-04-27 23:17 | 42.45467 | -70.75114 | 8244 ft | 257 kts | 36° |
| 2026-04-27 23:18 | 42.46925 | -70.73692 | 9214 ft | 261 kts | 35° |
| 2026-04-27 23:18 | 42.48502 | -70.72464 | 10153 ft | 265 kts | 20° |
| 2026-04-27 23:18 | 42.50302 | -70.71666 | 10753 ft | 281 kts | 19° |
| 2026-04-27 23:18 | 42.52230 | -70.70813 | 11155 ft | 302 kts | 19° |
| 2026-04-27 23:19 | 42.54292 | -70.69908 | 11605 ft | 320 kts | 18° |
| 2026-04-27 23:19 | 42.56448 | -70.68966 | 12200 ft | 330 kts | 18° |
| 2026-04-27 23:19 | 42.58647 | -70.68006 | 13038 ft | 333 kts | 18° |
| 2026-04-27 23:19 | 42.60876 | -70.67033 | 13766 ft | 340 kts | 18° |
| 2026-04-27 23:20 | 42.63143 | -70.66043 | 14490 ft | 344 kts | 17° |
| 2026-04-27 23:20 | 42.65429 | -70.65043 | 15196 ft | 347 kts | 17° |
| 2026-04-27 23:20 | 42.67746 | -70.64083 | 15918 ft | 349 kts | 12° |
| 2026-04-27 23:20 | 42.70154 | -70.63566 | 16620 ft | 352 kts | 9° |
| 2026-04-27 23:21 | 42.72582 | -70.63025 | 17309 ft | 354 kts | 9° |
| 2026-04-27 23:21 | 42.75020 | -70.62460 | 18003 ft | 357 kts | 9° |
| 2026-04-27 23:21 | 42.77432 | -70.61810 | 18639 ft | 360 kts | 17° |
| 2026-04-27 23:21 | 42.79677 | -70.60288 | 19234 ft | 364 kts | 35° |
| 2026-04-27 23:22 | 42.81494 | -70.57792 | 19817 ft | 371 kts | 51° |
| 2026-04-27 23:22 | 42.82942 | -70.54930 | 20355 ft | 374 kts | 52° |
| 2026-04-27 23:22 | 42.84401 | -70.51969 | 20933 ft | 377 kts | 53° |
| 2026-04-27 23:22 | 42.85851 | -70.48974 | 21468 ft | 380 kts | 53° |
| 2026-04-27 23:23 | 42.87299 | -70.45947 | 22028 ft | 383 kts | 53° |
| 2026-04-27 23:23 | 42.88755 | -70.42880 | 22565 ft | 386 kts | 53° |
| 2026-04-27 23:23 | 42.90211 | -70.39803 | 23102 ft | 388 kts | 53° |
| 2026-04-27 23:23 | 42.91678 | -70.36695 | 23627 ft | 391 kts | 53° |
| 2026-04-27 23:24 | 42.93156 | -70.33560 | 24103 ft | 393 kts | 53° |
| 2026-04-27 23:24 | 42.94640 | -70.30409 | 24520 ft | 396 kts | 52° |
| 2026-04-27 23:24 | 42.96129 | -70.27243 | 24926 ft | 399 kts | 52° |
| 2026-04-27 23:24 | 42.97635 | -70.24037 | 25335 ft | 401 kts | 52° |
| 2026-04-27 23:25 | 42.99145 | -70.20821 | 25720 ft | 404 kts | 52° |
| 2026-04-27 23:25 | 43.00667 | -70.17572 | 26104 ft | 408 kts | 53° |
| 2026-04-27 23:25 | 43.02205 | -70.14288 | 26389 ft | 413 kts | 53° |
| 2026-04-27 23:25 | 43.03755 | -70.10975 | 26797 ft | 415 kts | 53° |
| 2026-04-27 23:26 | 43.05316 | -70.07634 | 27164 ft | 418 kts | 53° |
| 2026-04-27 23:26 | 43.06883 | -70.04279 | 27537 ft | 420 kts | 53° |
| 2026-04-27 23:26 | 43.08459 | -70.00897 | 27888 ft | 423 kts | 53° |
| 2026-04-27 23:26 | 43.10047 | -69.97487 | 28248 ft | 426 kts | 53° |
| 2026-04-27 23:27 | 43.11640 | -69.94062 | 28598 ft | 428 kts | 53° |
| 2026-04-27 23:27 | 43.13242 | -69.90613 | 28955 ft | 431 kts | 53° |
| 2026-04-27 23:27 | 43.14851 | -69.87146 | 29288 ft | 433 kts | 53° |
| 2026-04-27 23:27 | 43.16474 | -69.83645 | 29588 ft | 437 kts | 54° |
| 2026-04-27 23:28 | 43.18115 | -69.80099 | 29721 ft | 444 kts | 54° |
| 2026-04-27 23:28 | 43.19770 | -69.76521 | 30155 ft | 444 kts | 54° |
| 2026-04-27 23:28 | 43.21425 | -69.72937 | 30416 ft | 447 kts | 54° |
| 2026-04-27 23:28 | 43.22530 | -69.70542 | 30576 ft | 449 kts | 54° |
| 2026-04-27 23:29 | 43.24766 | -69.65688 | 30969 ft | 451 kts | 54° |
| 2026-04-27 23:29 | 43.26446 | -69.62038 | 31268 ft | 452 kts | 54° |
| 2026-04-27 23:29 | 43.28119 | -69.58398 | 31647 ft | 451 kts | 54° |
| 2026-04-27 23:29 | 43.29792 | -69.54752 | 32027 ft | 450 kts | 54° |
| 2026-04-27 23:30 | 43.31455 | -69.51124 | 32397 ft | 450 kts | 54° |
| 2026-04-27 23:30 | 43.33121 | -69.47484 | 32764 ft | 449 kts | 54° |
| 2026-04-27 23:30 | 43.34781 | -69.43854 | 33081 ft | 449 kts | 54° |
| 2026-04-27 23:30 | 43.36443 | -69.40216 | 33437 ft | 449 kts | 54° |
| 2026-04-27 23:31 | 43.38099 | -69.36586 | 33795 ft | 448 kts | 54° |
| 2026-04-27 23:31 | 43.39191 | -69.34189 | 34035 ft | 447 kts | 54° |
| 2026-04-27 23:31 | 43.40843 | -69.30559 | 34370 ft | 447 kts | 54° |
| 2026-04-27 23:31 | 43.42498 | -69.26918 | 34498 ft | 451 kts | 54° |
| 2026-04-27 23:32 | 43.44164 | -69.23250 | 34753 ft | 451 kts | 54° |
| 2026-04-27 23:32 | 43.45821 | -69.19595 | 35003 ft | 451 kts | 55° |
| 2026-04-27 23:32 | 43.47484 | -69.15924 | 35225 ft | 452 kts | 55° |
| 2026-04-27 23:32 | 43.49149 | -69.12244 | 35449 ft | 453 kts | 55° |
| 2026-04-27 23:33 | 43.50813 | -69.08561 | 35695 ft | 453 kts | 55° |
| 2026-04-27 23:33 | 43.52474 | -69.04879 | 35938 ft | 453 kts | 55° |
| 2026-04-27 23:33 | 43.54137 | -69.01188 | 36168 ft | 453 kts | 55° |
| 2026-04-27 23:33 | 43.55796 | -68.97504 | 36404 ft | 453 kts | 55° |
| 2026-04-27 23:34 | 43.57458 | -68.93805 | 36625 ft | 453 kts | 55° |
| 2026-04-27 23:34 | 43.59114 | -68.90116 | 36844 ft | 453 kts | 55° |
| 2026-04-27 23:34 | 43.60771 | -68.86420 | 37054 ft | 453 kts | 55° |
| 2026-04-27 23:34 | 43.62431 | -68.82714 | 37239 ft | 454 kts | 55° |
| 2026-04-27 23:35 | 43.65750 | -68.75287 | 37330 ft | 454 kts | 55° |
| 2026-04-27 23:35 | 43.69054 | -68.67876 | 37327 ft | 454 kts | 56° |
| 2026-04-27 23:36 | 43.72370 | -68.60420 | 37327 ft | 456 kts | 56° |
| 2026-04-27 23:36 | 43.75684 | -68.52947 | 37328 ft | 455 kts | 56° |
| 2026-04-27 23:37 | 43.78989 | -68.45476 | 37330 ft | 456 kts | 56° |
| 2026-04-27 23:37 | 43.82295 | -68.37984 | 37329 ft | 456 kts | 56° |
| 2026-04-27 23:38 | 43.85595 | -68.30485 | 37337 ft | 456 kts | 56° |
| 2026-04-27 23:38 | 43.88887 | -68.22986 | 37337 ft | 456 kts | 56° |
| 2026-04-27 23:39 | 43.92175 | -68.15477 | 37338 ft | 456 kts | 56° |
| 2026-04-27 23:39 | 43.95461 | -68.07952 | 37343 ft | 457 kts | 56° |
| 2026-04-27 23:40 | 43.98754 | -68.00391 | 37341 ft | 458 kts | 56° |
| 2026-04-27 23:40 | 44.02042 | -67.92823 | 37343 ft | 457 kts | 57° |
| 2026-04-27 23:41 | 44.05324 | -67.85247 | 37343 ft | 458 kts | 57° |
| 2026-04-27 23:41 | 44.08602 | -67.77661 | 37341 ft | 458 kts | 57° |
| 2026-04-27 23:42 | 44.11875 | -67.70067 | 37341 ft | 458 kts | 57° |
| 2026-04-27 23:42 | 44.15142 | -67.62465 | 37347 ft | 458 kts | 57° |
| 2026-04-27 23:43 | 44.18402 | -67.54862 | 37344 ft | 457 kts | 57° |
| 2026-04-27 23:43 | 44.21663 | -67.47235 | 37337 ft | 458 kts | 57° |
| 2026-04-27 23:44 | 44.24926 | -67.39584 | 37342 ft | 459 kts | 57° |
| 2026-04-27 23:44 | 44.28183 | -67.31928 | 37352 ft | 459 kts | 57° |
| 2026-04-27 23:45 | 44.31441 | -67.24256 | 37347 ft | 459 kts | 57° |
| 2026-04-27 23:45 | 44.34694 | -67.16572 | 37346 ft | 459 kts | 57° |
| 2026-04-27 23:46 | 44.37942 | -67.08881 | 37344 ft | 459 kts | 57° |
| 2026-04-27 23:46 | 44.41144 | -67.01145 | 37332 ft | 461 kts | 64° |
| 2026-04-27 23:47 | 44.42155 | -66.96903 | 37346 ft | 461 kts | 76° |
| 2026-04-27 23:47 | 44.42915 | -66.92530 | 37331 ft | 464 kts | 74° |
| 2026-04-27 23:47 | 44.44467 | -66.83767 | 37294 ft | 466 kts | 75° |
| 2026-04-27 23:48 | 44.45226 | -66.79365 | 37072 ft | 465 kts | 75° |
| 2026-04-27 23:48 | 44.45979 | -66.74973 | 36808 ft | 463 kts | 75° |
| 2026-04-27 23:48 | 44.46727 | -66.70597 | 36561 ft | 463 kts | 75° |
| 2026-04-27 23:48 | 44.47475 | -66.66205 | 36308 ft | 463 kts | 75° |
| 2026-04-27 23:49 | 44.48220 | -66.61827 | 36060 ft | 462 kts | 75° |
| 2026-04-27 23:49 | 44.48959 | -66.57466 | 35472 ft | 460 kts | 75° |
| 2026-04-27 23:49 | 44.49700 | -66.53085 | 34618 ft | 466 kts | 75° |
| 2026-04-27 23:49 | 44.50447 | -66.48657 | 33808 ft | 468 kts | 76° |
| 2026-04-27 23:50 | 44.51191 | -66.44239 | 33237 ft | 463 kts | 76° |
| 2026-04-27 23:50 | 44.51923 | -66.39880 | 32846 ft | 455 kts | 76° |
| 2026-04-27 23:50 | 44.52641 | -66.35594 | 32430 ft | 448 kts | 76° |
| 2026-04-27 23:50 | 44.53348 | -66.31356 | 31921 ft | 444 kts | 76° |
| 2026-04-27 23:51 | 44.54049 | -66.27155 | 31376 ft | 442 kts | 76° |
| 2026-04-27 23:51 | 44.54743 | -66.22980 | 30850 ft | 439 kts | 76° |
| 2026-04-27 23:51 | 44.55430 | -66.18836 | 30348 ft | 436 kts | 76° |
| 2026-04-27 23:51 | 44.56114 | -66.14706 | 29773 ft | 432 kts | 76° |
| 2026-04-27 23:52 | 44.56788 | -66.10620 | 29265 ft | 427 kts | 76° |
| 2026-04-27 23:52 | 44.57453 | -66.06583 | 28792 ft | 422 kts | 76° |
| 2026-04-27 23:52 | 44.58109 | -66.02588 | 28312 ft | 418 kts | 76° |
| 2026-04-27 23:52 | 44.58757 | -65.98637 | 27837 ft | 414 kts | 76° |
| 2026-04-27 23:53 | 44.59398 | -65.94715 | 27389 ft | 411 kts | 76° |
| 2026-04-27 23:53 | 44.60032 | -65.90829 | 26896 ft | 408 kts | 76° |
| 2026-04-27 23:53 | 44.60661 | -65.86959 | 26455 ft | 405 kts | 76° |
| 2026-04-27 23:53 | 44.61285 | -65.83120 | 26005 ft | 402 kts | 76° |
| 2026-04-27 23:54 | 44.61903 | -65.79305 | 25562 ft | 399 kts | 76° |
| 2026-04-27 23:54 | 44.62515 | -65.75521 | 25126 ft | 396 kts | 76° |
| 2026-04-27 23:54 | 44.63121 | -65.71759 | 24694 ft | 394 kts | 76° |
| 2026-04-27 23:54 | 44.63717 | -65.68063 | 24276 ft | 392 kts | 76° |
| 2026-04-27 23:55 | 44.64322 | -65.64292 | 23821 ft | 390 kts | 76° |
| 2026-04-27 23:55 | 44.64916 | -65.60587 | 23349 ft | 388 kts | 76° |
| 2026-04-27 23:55 | 44.65503 | -65.56905 | 22923 ft | 385 kts | 76° |
| 2026-04-27 23:55 | 44.66086 | -65.53257 | 22526 ft | 381 kts | 76° |
| 2026-04-27 23:56 | 44.66662 | -65.49636 | 22129 ft | 378 kts | 76° |
| 2026-04-27 23:56 | 44.67223 | -65.46102 | 21742 ft | 375 kts | 76° |
| 2026-04-27 23:56 | 44.67794 | -65.42495 | 21354 ft | 372 kts | 77° |
| 2026-04-27 23:56 | 44.68347 | -65.39004 | 20978 ft | 369 kts | 77° |
| 2026-04-27 23:57 | 44.68901 | -65.35492 | 20602 ft | 367 kts | 77° |
| 2026-04-27 23:57 | 44.69449 | -65.32008 | 20227 ft | 364 kts | 77° |
| 2026-04-27 23:57 | 44.69995 | -65.28537 | 19854 ft | 362 kts | 77° |
| 2026-04-27 23:57 | 44.70535 | -65.25090 | 19485 ft | 360 kts | 77° |
| 2026-04-27 23:58 | 44.71073 | -65.21654 | 19110 ft | 359 kts | 77° |
| 2026-04-27 23:58 | 44.71605 | -65.18243 | 18741 ft | 357 kts | 77° |
| 2026-04-27 23:58 | 44.72135 | -65.14844 | 18348 ft | 355 kts | 77° |
| 2026-04-27 23:58 | 44.72660 | -65.11469 | 17959 ft | 352 kts | 77° |
| 2026-04-27 23:59 | 44.73180 | -65.08117 | 17580 ft | 350 kts | 77° |
| 2026-04-27 23:59 | 44.73701 | -65.04756 | 16951 ft | 354 kts | 76° |
| 2026-04-27 23:59 | 44.74222 | -65.01375 | 16501 ft | 353 kts | 76° |
| 2026-04-27 23:59 | 44.74742 | -64.98009 | 16120 ft | 351 kts | 76° |
| 2026-04-28 00:00 | 44.75257 | -64.94670 | 15751 ft | 348 kts | 76° |
| 2026-04-28 00:00 | 44.75767 | -64.91357 | 15398 ft | 345 kts | 76° |
| 2026-04-28 00:00 | 44.76271 | -64.88075 | 15034 ft | 342 kts | 76° |
| 2026-04-28 00:00 | 44.76770 | -64.84814 | 14682 ft | 339 kts | 76° |
| 2026-04-28 00:01 | 44.77263 | -64.81589 | 14336 ft | 336 kts | 76° |
| 2026-04-28 00:01 | 44.77752 | -64.78379 | 13958 ft | 334 kts | 76° |
| 2026-04-28 00:01 | 44.78233 | -64.75192 | 13544 ft | 333 kts | 76° |
| 2026-04-28 00:01 | 44.78713 | -64.72023 | 13192 ft | 329 kts | 76° |
| 2026-04-28 00:02 | 44.79185 | -64.68896 | 12871 ft | 325 kts | 76° |
| 2026-04-28 00:02 | 44.79652 | -64.65809 | 12540 ft | 321 kts | 76° |
| 2026-04-28 00:02 | 44.80113 | -64.62748 | 12209 ft | 318 kts | 76° |
| 2026-04-28 00:02 | 44.80568 | -64.59723 | 11876 ft | 315 kts | 76° |
| 2026-04-28 00:03 | 44.81019 | -64.56719 | 11546 ft | 312 kts | 76° |
| 2026-04-28 00:03 | 44.81465 | -64.53749 | 11214 ft | 309 kts | 76° |
| 2026-04-28 00:03 | 44.81906 | -64.50800 | 10896 ft | 307 kts | 76° |
| 2026-04-28 00:03 | 44.82343 | -64.47872 | 10586 ft | 304 kts | 76° |
| 2026-04-28 00:04 | 44.82772 | -64.44996 | 10426 ft | 296 kts | 76° |
| 2026-04-28 00:04 | 44.83590 | -64.39496 | 10157 ft | 278 kts | 76° |
| 2026-04-28 00:04 | 44.83979 | -64.36870 | 10016 ft | 270 kts | 76° |
| 2026-04-28 00:05 | 44.84358 | -64.34319 | 9803 ft | 264 kts | 76° |
| 2026-04-28 00:05 | 44.84729 | -64.31804 | 9516 ft | 261 kts | 76° |
| 2026-04-28 00:05 | 44.85097 | -64.29310 | 9228 ft | 259 kts | 76° |
| 2026-04-28 00:05 | 44.85339 | -64.27669 | 9040 ft | 257 kts | 76° |
| 2026-04-28 00:06 | 44.85818 | -64.24393 | 8680 ft | 253 kts | 76° |
| 2026-04-28 00:06 | 44.86154 | -64.21978 | 8581 ft | 253 kts | 76° |
| 2026-04-28 00:06 | 44.86489 | -64.19565 | 8380 ft | 249 kts | 76° |
| 2026-04-28 00:06 | 44.86819 | -64.17187 | 8128 ft | 246 kts | 76° |
| 2026-04-28 00:07 | 44.87146 | -64.14830 | 7874 ft | 243 kts | 76° |
| 2026-04-28 00:07 | 44.87469 | -64.12501 | 7623 ft | 241 kts | 76° |
| 2026-04-28 00:07 | 44.87789 | -64.10193 | 7334 ft | 240 kts | 76° |
| 2026-04-28 00:07 | 44.88107 | -64.07892 | 7053 ft | 239 kts | 77° |
| 2026-04-28 00:08 | 44.88424 | -64.05593 | 6772 ft | 238 kts | 77° |
| 2026-04-28 00:08 | 44.88740 | -64.03302 | 6467 ft | 238 kts | 77° |
| 2026-04-28 00:08 | 44.89055 | -64.01016 | 6158 ft | 237 kts | 77° |
| 2026-04-28 00:08 | 44.89368 | -63.98733 | 5871 ft | 237 kts | 78° |
| 2026-04-28 00:09 | 44.89680 | -63.96454 | 5576 ft | 236 kts | 78° |
| 2026-04-28 00:09 | 44.89991 | -63.94184 | 5286 ft | 236 kts | 78° |
| 2026-04-28 00:09 | 44.90302 | -63.91915 | 4981 ft | 235 kts | 78° |
| 2026-04-28 00:09 | 44.90610 | -63.89654 | 4678 ft | 234 kts | 78° |
| 2026-04-28 00:10 | 44.90918 | -63.87396 | 4383 ft | 234 kts | 78° |
| 2026-04-28 00:10 | 44.91353 | -63.85199 | 4112 ft | 231 kts | 73° |
| 2026-04-28 00:10 | 44.91790 | -63.83071 | 4051 ft | 220 kts | 75° |
| 2026-04-28 00:10 | 44.92182 | -63.81033 | 4034 ft | 212 kts | 75° |
| 2026-04-28 00:11 | 44.92556 | -63.79024 | 4021 ft | 212 kts | 75° |
| 2026-04-28 00:11 | 44.92804 | -63.77707 | 3999 ft | 206 kts | 75° |
| 2026-04-28 00:11 | 44.93263 | -63.75235 | 4027 ft | 184 kts | 74° |
| 2026-04-28 00:11 | 44.93574 | -63.73538 | 3879 ft | 176 kts | 75° |
| 2026-04-28 00:12 | 44.93888 | -63.71862 | 3588 ft | 177 kts | 75° |
| 2026-04-28 00:12 | 44.94207 | -63.70191 | 3318 ft | 174 kts | 75° |
| 2026-04-28 00:12 | 44.94527 | -63.68592 | 3106 ft | 165 kts | 75° |
| 2026-04-28 00:12 | 44.94843 | -63.67074 | 2881 ft | 156 kts | 75° |
| 2026-04-28 00:13 | 44.95148 | -63.65662 | 2693 ft | 145 kts | 75° |
| 2026-04-28 00:13 | 44.95229 | -63.64293 | 2607 ft | 140 kts | 106° |
| 2026-04-28 00:13 | 44.95008 | -63.63434 | 2545 ft | 141 kts | 114° |
| 2026-04-28 00:13 | 44.94539 | -63.62242 | 2333 ft | 137 kts | 122° |
| 2026-04-28 00:14 | 44.94012 | -63.61123 | 2132 ft | 137 kts | 124° |
| 2026-04-28 00:14 | 44.93473 | -63.60022 | 1943 ft | 136 kts | 125° |
| 2026-04-28 00:14 | 44.92757 | -63.58575 | 1689 ft | 135 kts | 126° |
| 2026-04-28 00:14 | 44.92392 | -63.57840 | 1546 ft | 135 kts | 126° |
| 2026-04-28 00:15 | 44.91682 | -63.56409 | 1298 ft | 134 kts | 126° |
| 2026-04-28 00:15 | 44.91319 | -63.55678 | 1163 ft | 135 kts | 127° |
| 2026-04-28 00:15 | 44.90781 | -63.54594 | 956 ft | 135 kts | 126° |
| 2026-04-28 00:15 | 44.90241 | -63.53507 | 782 ft | 136 kts | 127° |
| 2026-04-28 00:16 | 44.89700 | -63.52420 | 593 ft | 135 kts | 126° |
| 2026-04-28 00:16 | 44.89161 | -63.51331 | 461 ft | 130 kts | 126° |
| 2026-04-28 00:16 | 44.88799 | -63.50593 | 461 ft | 39 kts | 123° |
| 2026-04-28 00:16 | 44.88753 | -63.50499 | 460 ft | 14 kts | 127° |
| 2026-04-28 00:17 | 44.88663 | -63.50320 | 459 ft | 30 kts | 126° |
| 2026-04-28 00:17 | 44.88516 | -63.50027 | 459 ft | 44 kts | 125° |
| 2026-04-28 00:17 | 44.88374 | -63.49808 | 459 ft | 6 kts | 210° |
| 2026-04-28 00:17 | 44.88315 | -63.49901 | 460 ft | 8 kts | 219° |
| 2026-04-28 00:18 | 44.88280 | -63.49953 | 462 ft | 6 kts | 254° |
| 2026-04-28 00:18 | 44.88291 | -63.50004 | 462 ft | 0 kts | 304° |
| 2026-04-28 00:20 | 44.88296 | -63.50015 | 461 ft | 6 kts | 304° |
| 2026-04-28 00:20 | 44.88354 | -63.50133 | 461 ft | 23 kts | 302° |
| 2026-04-28 00:20 | 44.88357 | -63.50400 | 460 ft | 32 kts | 264° |
| 2026-04-28 00:21 | 44.88331 | -63.50730 | 460 ft | 29 kts | 263° |
| 2026-04-28 00:21 | 44.88321 | -63.51014 | 460 ft | 29 kts | 289° |
| 2026-04-28 00:21 | 44.88414 | -63.51188 | 460 ft | 12 kts | 332° |
| 2026-04-28 00:21 | 44.88506 | -63.51217 | 460 ft | 15 kts | 351° |
| 2026-04-28 00:22 | 44.88548 | -63.51258 | 460 ft | 7 kts | 281° |
| 2026-04-28 00:22 | 44.88548 | -63.51332 | 460 ft | 9 kts | 265° |
| 2026-04-28 00:22 | 44.88547 | -63.51359 | 460 ft | 0 kts | 266° |